• Join FlightAware (Why Join?)
  • Login
  • US Flag 
10:15PM EDT


 

Airport Tracker/Info


-or-


 

Live Flight TrackerFlight Track Log ✈ CES2279 ✈ 18-Nov-2013 ✈ ZLXY / XIY - ZLXN / XNN

Flight Track Log - Related Links

Times and Time Zones

All times are in EST time to prevent confusion due to time zone crossing. See the CES2279 flight status page for this flight to view local times or setup timezone preferences in your user account.

Time Position Orientation Groundspeed Altitude Reporting Facility
EST Latitude Longitude Course Direction KTS MPH feet Rate Location/Type
06:57PM 34.9548 107.2496 293° West  Level Estimated
06:58PM 34.9859 107.1552 292° West  Level Estimated
06:59PM 35.0169 107.0606 292° West  Level Estimated
07:00PM 35.0479 106.9660 292° West  Level Estimated
07:01PM 35.0788 106.8713 292° West  Level Estimated
07:02PM 35.1096 106.7765 292° West  Level Estimated
07:03PM 35.1404 106.6817 292° West  Level Estimated
07:04PM 35.1710 106.5868 292° West  Level Estimated
07:05PM 35.2016 106.4918 292° West  Level Estimated
07:06PM 35.2322 106.3967 291° West  Level Estimated
07:07PM 35.2626 106.3016 291° West  Level Estimated
07:08PM 35.2930 106.2064 291° West  Level Estimated
07:09PM 35.3233 106.1111 291° West  Level Estimated
07:10PM 35.3535 106.0158 291° West  Level Estimated
07:11PM 35.3836 105.9204 291° West  Level Estimated
07:12PM 35.4137 105.8249 291° West  Level Estimated
07:13PM 35.4437 105.7293 291° West  Level Estimated
07:14PM 35.4736 105.6337 291° West  Level Estimated
07:15PM 35.5035 105.5380 291° West  Level Estimated
07:16PM 35.5332 105.4422 291° West  Level Estimated
07:17PM 35.5630 105.3464 291° West  Level Estimated
07:18PM 35.5926 105.2505 291° West  Level Estimated
07:19PM 35.6221 105.1545 291° West  Level Estimated
07:20PM 35.6516 105.0585 291° West  Level Estimated
07:21PM 35.6810 104.9623 291° West  Level Estimated
07:22PM 35.7103 104.8661 291° West  Level Estimated
07:23PM 35.7395 104.7699 291° West  Level Estimated
07:24PM 35.7687 104.6736 290° West  Level Estimated
07:25PM 35.7978 104.5771 290° West  Level Estimated
07:26PM 35.8268 104.4807 290° West  Level Estimated
07:27PM 35.8557 104.3841 290° West  Level Estimated
07:28PM 35.8846 104.2875 290° West  Level Estimated
07:29PM 35.9134 104.1908 290° West  Level Estimated
07:30PM 35.9421 104.0940 290° West  Level Estimated
07:31PM 35.9707 103.9972 290° West  Level Estimated
07:32PM 35.9992 103.9003 290° West  Level Estimated
07:33PM 36.0277 103.8033 290° West  Level Estimated
07:34PM 36.0561 103.7063 290° West  Level Estimated
07:35PM 36.0844 103.6092 290° West  Level Estimated
07:36PM 36.1126 103.5120 290° West  Level Estimated
07:37PM 36.1408 103.4148 290° West  Level Estimated
07:38PM 36.1689 103.3174 290° West  Level Estimated
07:39PM 36.1969 103.2200 290° West  Level Estimated
07:40PM 36.2248 103.1226 290° West  Level Estimated
07:41PM 36.2526 103.0251 290° West  Level Estimated
07:42PM 36.2804 102.9275 289° West  Level Estimated
07:43PM 36.3081 102.8298 289° West  Level Estimated
07:44PM 36.3357 102.7321 289° West  Level Estimated
07:45PM 36.3632 102.6343 289° West  Level Estimated
07:46PM 36.3906 102.5364 289° West  Level Estimated
07:47PM 36.4180 102.4385 289° West  Level Estimated
07:48PM 36.4453 102.3404 289° West  Level Estimated
07:49PM 36.4725 102.2424 289° West  Level Estimated
07:50PM 36.4996 102.1442 289° West  Level Estimated
07:51PM 36.5266 102.0460 289° West  Level Estimated
07:52PM 36.5275 102.0428 289° West  Level Estimated
07:53PM 36.5275 102.0428 270° West  Level Estimated
07:54PM 36.5275 102.0428 270° West  Level Estimated
07:55PM 36.5275 102.0428 270° West  Level Estimated
07:56PM 36.5275 102.0428 270° West  Level Estimated
07:57PM 36.5275 102.0428 270° West  Level Estimated
07:58PM 36.5275 102.0428 270° West  Level Estimated
07:59PM 36.5275 102.0428 270° West  Level Estimated
08:00PM 36.5275 102.0428 270° West  Level Estimated
08:01PM 36.5275 102.0428 270° West  Level Estimated
08:02PM 36.5275 102.0428 270° West  Level Estimated
08:03PM 36.5275 102.0428 270° West  Level Estimated
08:04PM 36.5275 102.0428 270° West  Level Estimated
08:05PM 36.5275 102.0428 270° West  Level Estimated
08:06PM 36.5275 102.0428 270° West  Level Estimated
08:07PM 36.5275 102.0428 270° West  Level Estimated